Decoded Metar for KMCX ( in ) (IATA:) | Meteo·Mobile Aviation Weather
aviador You're here:

KMCX Decoded Metar

in
Report Time2018-11-12 17:55:00
UTC Time2018-11-12 18:04:16
Flight Rules vfr VFR
WindCalm
Visibility9999 m
Phenomena:N/A
Clouds:Broken 034 Hf
Overcast 090 Hf
Expected CloudBase > 2,000 ft AGL from Temp-Dew spread
Ceiling3,400 ft
Temp03°C
Dew Point-2°C (70% RH)
AAT0.7°C
QNH1026 hPa
Raw Report
KMCX 121755Z AUTO 00000KT 7SM BKN034 OVC090 03/M02 A3030 RMK AO2
T00251017 10026 21005=

Extra information for KMCX:More info

Social comments